Time;durP1;ratioP1;P1;durP2;ratioP2;P2;SDS_P1;SDS_P2;PMS_P1;PMS_P2;Temp;Humidity;BMP_temperature;BMP_pressure;BME280_temperature;BME280_humidity;BME280_pressure;Samples;Min_cycle;Max_cycle;Signal;HPM_P1;HPM_P2
2022/05/11 00:02:31;;;;;;;14.75;10.23;;;;;;;16.22;100.00;100399.94;6007899;29;20045;-92
2022/05/11 00:05:34;;;;;;;15.15;10.95;;;;;;;16.28;100.00;100401.91;6009807;29;20042;-91
2022/05/11 00:08:36;;;;;;;13.80;9.93;;;;;;;16.29;100.00;100387.84;6016154;29;20488;-91
2022/05/11 00:11:39;;;;;;;14.02;10.18;;;;;;;16.32;100.00;100384.91;6013664;29;20056;-91
2022/05/11 00:14:41;;;;;;;14.02;11.23;;;;;;;16.33;100.00;100389.19;6017566;29;20053;-91
2022/05/11 00:17:43;;;;;;;17.05;10.30;;;;;;;16.30;100.00;100387.72;6037265;29;20086;-96
2022/05/11 00:20:45;;;;;;;14.60;11.02;;;;;;;16.32;100.00;100377.06;6016072;29;20057;-91
2022/05/11 00:23:48;;;;;;;12.63;9.82;;;;;;;16.32;100.00;100364.00;6022312;29;20049;-90
2022/05/11 00:26:50;;;;;;;17.83;10.57;;;;;;;16.29;100.00;100380.03;5992333;29;20052;-91
2022/05/11 00:29:51;;;;;;;15.02;10.63;;;;;;;16.32;100.00;100385.75;6020446;29;20053;-91
2022/05/11 00:33:02;;;;;;;15.60;10.90;;;;;;;16.30;100.00;100389.50;5992635;29;20580;-91
2022/05/11 00:36:10;;;;;;;14.45;10.70;;;;;;;16.31;100.00;100389.31;5992524;29;20073;-92
2022/05/11 00:39:12;;;;;;;14.48;10.23;;;;;;;16.34;100.00;100386.38;6026774;29;20041;-91
2022/05/11 00:42:14;;;;;;;13.50;10.23;;;;;;;16.36;100.00;100381.00;6024210;29;20773;-91
2022/05/11 00:45:17;;;;;;;15.70;10.65;;;;;;;16.30;100.00;100384.28;6010927;29;20195;-91
2022/05/11 00:51:50;;;;;;;12.95;9.52;;;;;;;16.15;100.00;100387.53;6014830;29;20053;-91
2022/05/11 00:55:04;;;;;;;11.82;9.05;;;;;;;16.13;100.00;100386.06;6009966;29;20048;-91
2022/05/11 00:58:22;;;;;;;11.15;9.18;;;;;;;16.04;100.00;100377.38;6024266;29;20200;-91
2022/05/11 01:01:25;;;;;;;12.85;8.55;;;;;;;16.01;100.00;100372.47;6016581;29;20507;-91
2022/05/11 01:04:27;;;;;;;11.93;7.25;;;;;;;15.92;100.00;100369.03;6009368;29;20698;-91
2022/05/11 01:07:29;;;;;;;10.98;8.07;;;;;;;15.89;100.00;100358.09;6016694;29;20071;-91
2022/05/11 01:10:32;;;;;;;7.15;6.22;;;;;;;15.92;100.00;100376.03;6014836;29;20142;-90
2022/05/11 01:13:38;;;;;;;10.98;6.97;;;;;;;15.97;100.00;100370.34;6019146;29;20103;-91
2022/05/11 01:16:41;;;;;;;9.55;8.05;;;;;;;15.98;100.00;100357.13;6013248;29;20128;-92
2022/05/11 01:19:45;;;;;;;10.60;8.65;;;;;;;15.99;100.00;100356.16;6027259;29;20050;-90
2022/05/11 01:23:11;;;;;;;10.30;8.35;;;;;;;16.04;100.00;100346.03;6019549;29;20109;-91
2022/05/11 01:26:18;;;;;;;11.25;7.30;;;;;;;16.06;100.00;100345.88;6015678;29;20598;-90
2022/05/11 01:29:20;;;;;;;7.43;4.72;;;;;;;15.92;100.00;100334.28;6006512;29;20051;-90
2022/05/11 01:32:24;;;;;;;8.30;5.38;;;;;;;15.85;100.00;100330.66;6006538;29;20088;-89
2022/05/11 01:35:47;;;;;;;6.68;5.70;;;;;;;15.98;100.00;100328.41;6022918;29;20041;-89
2022/05/11 01:38:52;;;;;;;7.90;4.70;;;;;;;16.09;100.00;100327.28;6009497;29;20054;-90
2022/05/11 01:41:54;;;;;;;8.18;5.70;;;;;;;16.21;100.00;100333.00;6009284;29;20057;-91
2022/05/11 01:44:57;;;;;;;8.25;5.00;;;;;;;16.21;100.00;100326.00;6043180;29;20044;-90
2022/05/11 01:47:58;;;;;;;7.82;5.70;;;;;;;16.32;99.77;100328.28;6000065;29;20500;-90
2022/05/11 01:51:01;;;;;;;12.95;6.25;;;;;;;16.33;99.94;100319.47;6028248;29;20048;-90
2022/05/11 01:54:03;;;;;;;10.23;6.47;;;;;;;16.35;100.00;100314.09;6030230;29;20046;-90
2022/05/11 01:57:05;;;;;;;7.68;5.60;;;;;;;16.37;100.00;100325.16;6024004;29;20488;-91
2022/05/11 02:00:09;;;;;;;6.47;5.28;;;;;;;16.40;99.88;100308.34;6013966;29;20064;-91
2022/05/11 02:03:18;;;;;;;9.25;5.47;;;;;;;16.34;100.00;100299.38;6015290;29;20563;-90
2022/05/11 02:09:41;;;;;;;8.45;6.35;;;;;;;16.29;100.00;100286.78;6012633;29;20531;-91
2022/05/11 02:12:43;;;;;;;7.25;5.88;;;;;;;16.29;100.00;100281.56;5998791;29;20042;-90
2022/05/11 02:15:45;;;;;;;6.85;5.50;;;;;;;16.30;100.00;100277.19;6008430;29;20050;-90
2022/05/11 02:18:47;;;;;;;8.45;5.30;;;;;;;16.28;100.00;100273.91;6011541;29;20048;-90
2022/05/11 02:21:49;;;;;;;9.90;5.47;;;;;;;16.29;100.00;100260.69;6008296;29;20053;-91
2022/05/11 02:24:51;;;;;;;8.98;5.15;;;;;;;16.28;100.00;100260.84;6006449;29;20038;-90
2022/05/11 02:27:53;;;;;;;13.05;5.95;;;;;;;16.34;99.00;100268.03;6017048;29;20045;-91
2022/05/11 02:30:57;;;;;;;9.68;5.57;;;;;;;16.40;97.87;100263.94;6005416;29;20045;-91
2022/05/11 02:34:02;;;;;;;9.32;5.93;;;;;;;16.36;97.40;100250.41;6011669;29;20048;-91
2022/05/11 02:37:05;;;;;;;9.32;6.00;;;;;;;16.35;99.30;100260.03;6015254;29;20048;-91
2022/05/11 02:40:07;;;;;;;8.02;5.80;;;;;;;16.39;97.94;100259.69;6009882;29;20030;-91
2022/05/11 02:43:11;;;;;;;10.60;6.10;;;;;;;16.37;98.50;100254.63;6022362;29;20064;-91
2022/05/11 02:46:12;;;;;;;10.77;5.75;;;;;;;16.34;98.37;100240.09;6015028;29;20487;-91
2022/05/11 02:49:15;;;;;;;6.22;5.38;;;;;;;16.34;98.37;100247.94;6025859;29;20201;-91
2022/05/11 02:52:17;;;;;;;8.02;6.05;;;;;;;16.31;100.00;100252.69;6012614;29;20467;-91
2022/05/11 02:55:20;;;;;;;9.13;5.47;;;;;;;16.25;100.00;100253.38;6011375;29;20763;-91
2022/05/11 02:58:26;;;;;;;12.07;6.22;;;;;;;16.21;100.00;100237.19;6025285;29;20041;-91
2022/05/11 03:01:27;;;;;;;8.85;5.38;;;;;;;16.19;100.00;100236.53;6023749;29;20050;-91
2022/05/11 03:04:30;;;;;;;8.70;5.85;;;;;;;16.20;99.49;100239.94;6008319;29;20046;-91
2022/05/11 03:07:32;;;;;;;7.80;5.65;;;;;;;16.19;99.70;100240.94;6025062;29;20125;-91
2022/05/11 03:10:35;;;;;;;7.95;5.53;;;;;;;16.18;100.00;100236.72;6031285;29;20052;-91
2022/05/11 03:13:37;;;;;;;9.13;5.38;;;;;;;16.11;100.00;100232.13;5997150;29;20057;-90
2022/05/11 03:16:40;;;;;;;9.35;5.88;;;;;;;16.00;100.00;100224.66;6010691;29;20546;-91
2022/05/11 03:19:41;;;;;;;6.32;5.28;;;;;;;15.86;100.00;100226.09;6025672;29;20121;-90
2022/05/11 03:22:44;;;;;;;8.85;5.90;;;;;;;15.83;100.00;100216.00;6016559;29;20057;-90
2022/05/11 03:25:46;;;;;;;6.10;5.50;;;;;;;15.78;100.00;100210.44;6017104;29;20050;-90
2022/05/11 03:28:48;;;;;;;6.25;5.28;;;;;;;15.81;100.00;100214.53;6027906;29;20057;-91
2022/05/11 03:35:11;;;;;;;8.15;6.03;;;;;;;15.80;100.00;100211.13;6023188;29;20053;-90
2022/05/11 03:38:13;;;;;;;6.90;5.57;;;;;;;15.83;100.00;100207.34;6032127;29;20103;-91
2022/05/11 03:41:15;;;;;;;8.85;5.60;;;;;;;15.83;100.00;100208.16;6007962;29;20065;-90
2022/05/11 03:44:17;;;;;;;10.50;5.70;;;;;;;15.83;100.00;100202.94;6016407;29;20041;-91
2022/05/11 03:47:19;;;;;;;8.38;5.57;;;;;;;15.80;100.00;100205.06;6020479;29;20056;-91
2022/05/11 03:50:24;;;;;;;7.57;5.63;;;;;;;15.82;100.00;100208.31;6034432;29;20678;-91
2022/05/11 03:53:27;;;;;;;6.68;5.38;;;;;;;15.86;100.00;100207.84;6029135;29;20381;-90
2022/05/11 03:56:29;;;;;;;6.80;5.07;;;;;;;15.87;100.00;100204.22;6031240;29;20045;-91
2022/05/11 03:59:31;;;;;;;7.55;5.85;;;;;;;15.85;100.00;100211.44;6018613;29;20073;-90
2022/05/11 04:02:33;;;;;;;5.60;4.85;;;;;;;15.87;100.00;100206.03;6016595;29;20500;-90
2022/05/11 04:05:35;;;;;;;7.22;5.38;;;;;;;15.87;100.00;100200.81;6025404;29;20087;-90
2022/05/11 04:08:37;;;;;;;9.63;5.15;;;;;;;15.90;100.00;100203.13;6014794;29;20045;-90
2022/05/11 04:11:39;;;;;;;6.72;5.05;;;;;;;15.92;100.00;100203.75;6017654;29;20052;-91
2022/05/11 04:14:41;;;;;;;6.50;5.60;;;;;;;15.92;100.00;100206.34;6022232;29;20653;-91
2022/05/11 04:17:44;;;;;;;6.53;5.57;;;;;;;15.96;100.00;100207.66;6016704;29;20045;-91
2022/05/11 04:20:46;;;;;;;9.32;6.25;;;;;;;15.99;100.00;100204.72;6021869;29;20049;-90
2022/05/11 04:23:48;;;;;;;8.73;6.93;;;;;;;16.06;100.00;100199.69;6011055;29;20057;-90
2022/05/11 04:26:50;;;;;;;7.63;5.53;;;;;;;16.08;100.00;100201.13;6024789;29;20212;-91
2022/05/11 04:29:52;;;;;;;9.30;5.93;;;;;;;16.12;100.00;100197.22;6019736;29;20041;-91
2022/05/11 04:32:54;;;;;;;7.88;5.93;;;;;;;16.14;100.00;100205.69;6019068;29;20053;-91
2022/05/11 04:35:56;;;;;;;6.97;5.55;;;;;;;16.22;100.00;100201.44;6007322;29;20037;-91
2022/05/11 04:38:59;;;;;;;7.40;6.10;;;;;;;16.25;100.00;100194.09;6015384;29;20034;-91
2022/05/11 04:42:07;;;;;;;7.68;6.25;;;;;;;16.28;100.00;100201.59;6016918;29;20049;-91
2022/05/11 04:45:09;;;;;;;7.55;5.68;;;;;;;16.29;100.00;100195.38;6021974;29;20615;-91
2022/05/11 04:48:13;;;;;;;7.15;5.68;;;;;;;16.33;100.00;100203.72;6034491;29;20041;-91
2022/05/11 04:51:15;;;;;;;8.65;5.90;;;;;;;16.35;100.00;100207.78;6016159;29;20080;-91
2022/05/11 04:54:18;;;;;;;7.93;5.68;;;;;;;16.39;100.00;100202.22;6013888;29;20128;-91
2022/05/11 04:57:20;;;;;;;7.95;5.70;;;;;;;16.43;100.00;100204.34;6024321;29;20420;-91
2022/05/11 05:00:22;;;;;;;7.70;6.15;;;;;;;16.48;100.00;100201.22;6010762;29;20041;-91
2022/05/11 05:03:24;;;;;;;7.03;5.93;;;;;;;16.49;100.00;100195.00;6032967;29;20049;-91
2022/05/11 05:06:28;;;;;;;8.00;5.95;;;;;;;16.53;100.00;100194.50;6010855;29;20068;-91
2022/05/11 05:09:30;;;;;;;9.82;5.70;;;;;;;16.62;100.00;100197.09;6010279;29;20493;-91
2022/05/11 05:12:32;;;;;;;8.02;5.57;;;;;;;16.69;99.30;100196.25;6010946;29;20065;-91
2022/05/11 05:15:37;;;;;;;9.48;5.70;;;;;;;16.79;99.53;100199.53;6022297;29;20057;-91
2022/05/11 05:18:39;;;;;;;9.05;5.55;;;;;;;16.89;99.93;100207.13;6011005;29;20046;-91
2022/05/11 05:21:41;;;;;;;8.60;5.78;;;;;;;17.01;99.18;100195.31;6012231;29;20444;-91
2022/05/11 05:24:44;;;;;;;9.95;6.50;;;;;;;17.08;99.27;100199.88;6006229;29;20076;-91
2022/05/11 05:27:49;;;;;;;9.80;6.10;;;;;;;17.16;99.15;100194.59;6026778;29;20052;-91
2022/05/11 05:31:09;;;;;;;9.45;5.82;;;;;;;17.24;97.31;100194.53;6013601;29;20049;-91
2022/05/11 05:34:12;;;;;;;7.22;6.07;;;;;;;17.32;95.04;100198.94;6019668;29;20178;-91
2022/05/11 05:37:15;;;;;;;8.57;5.78;;;;;;;17.47;93.56;100196.38;6011201;29;20476;-92
2022/05/11 05:40:18;;;;;;;14.93;6.22;;;;;;;17.59;91.05;100195.81;6012133;29;20042;-91
2022/05/11 05:43:22;;;;;;;7.32;5.47;;;;;;;17.75;90.72;100194.03;6003084;29;20435;-92
2022/05/11 05:46:24;;;;;;;9.18;5.70;;;;;;;17.85;90.80;100198.06;6005427;29;20049;-92
2022/05/11 05:49:28;;;;;;;6.65;5.85;;;;;;;17.84;90.37;100193.03;6017779;29;20047;-92
2022/05/11 05:52:30;;;;;;;8.55;5.50;;;;;;;17.86;90.81;100191.84;6011294;29;20075;-92
2022/05/11 05:55:32;;;;;;;8.10;6.03;;;;;;;18.01;90.42;100198.91;6019074;29;20125;-92
2022/05/11 05:58:34;;;;;;;6.65;6.05;;;;;;;18.18;90.15;100183.84;6002873;29;20079;-92
2022/05/11 06:01:36;;;;;;;6.88;5.82;;;;;;;18.33;90.14;100183.88;6006730;29;20049;-92
2022/05/11 06:04:38;;;;;;;10.02;6.10;;;;;;;18.48;89.36;100184.69;6011367;29;20061;-92
2022/05/11 06:07:41;;;;;;;8.10;5.40;;;;;;;18.65;88.28;100182.69;6015528;29;20600;-92
2022/05/11 06:10:44;;;;;;;6.97;5.63;;;;;;;18.88;86.89;100169.47;6015292;29;20076;-92
2022/05/11 06:13:46;;;;;;;8.27;5.82;;;;;;;18.98;87.06;100174.44;6002728;29;20045;-92
2022/05/11 06:16:49;;;;;;;9.15;5.80;;;;;;;18.94;87.54;100168.75;5982188;29;20056;-92
2022/05/11 06:19:53;;;;;;;9.15;5.47;;;;;;;18.95;86.80;100178.22;5996216;29;20054;-92
2022/05/11 06:22:55;;;;;;;8.77;5.82;;;;;;;18.94;87.40;100169.56;5996994;29;20076;-92
2022/05/11 06:25:57;;;;;;;8.75;5.50;;;;;;;19.09;86.31;100171.34;6010227;29;20121;-92
2022/05/11 06:29:00;;;;;;;7.88;6.00;;;;;;;19.23;85.73;100157.38;6000160;29;20380;-92
2022/05/11 06:32:02;;;;;;;7.28;5.78;;;;;;;19.34;84.84;100150.78;5996776;29;20053;-92
2022/05/11 06:35:04;;;;;;;9.18;5.68;;;;;;;19.45;83.07;100149.47;6008763;29;20046;-92
2022/05/11 06:38:09;;;;;;;12.85;6.93;;;;;;;19.43;84.23;100156.72;6016482;29;20049;-92
2022/05/11 06:41:20;;;;;;;12.55;6.65;;;;;;;19.35;83.80;100149.78;6011543;29;20178;-92
2022/05/11 06:44:22;;;;;;;12.07;6.82;;;;;;;19.33;82.95;100151.81;6007175;29;20057;-92
2022/05/11 06:47:24;;;;;;;12.07;6.95;;;;;;;19.35;83.57;100157.66;6014684;29;20124;-92
2022/05/11 06:50:27;;;;;;;14.65;7.35;;;;;;;19.45;83.50;100154.72;6011676;29;20069;-92
2022/05/11 06:59:16;;;;;;;9.90;6.88;;;;;;;19.77;81.53;100150.78;6020202;29;20544;-92
2022/05/11 07:00:13;;;;;;;7.28;5.63;;;;;;;20.09;80.88;100141.50;6027568;29;20608;-92
2022/05/11 07:03:15;;;;;;;10.88;6.45;;;;;;;20.19;79.81;100135.91;6005761;29;20041;-92
2022/05/11 07:06:18;;;;;;;8.23;6.00;;;;;;;20.30;77.72;100139.81;6021701;29;20045;-92
2022/05/11 07:09:22;;;;;;;7.72;6.38;;;;;;;20.53;78.97;100142.94;6026772;29;20041;-92
2022/05/11 07:12:38;;;;;;;8.88;5.65;;;;;;;20.84;77.04;100136.41;6006066;29;20615;-92
2022/05/11 07:15:39;;;;;;;9.63;6.40;;;;;;;21.20;75.25;100136.09;6028168;29;20073;-92
2022/05/11 07:18:42;;;;;;;9.00;5.50;;;;;;;21.33;72.81;100123.97;6023701;29;20164;-93
2022/05/11 07:21:44;;;;;;;14.27;6.35;;;;;;;21.47;71.04;100125.63;6009964;29;20605;-92
2022/05/11 07:24:46;;;;;;;7.50;6.50;;;;;;;21.49;71.68;100124.41;6007143;29;20424;-92
2022/05/11 07:27:49;;;;;;;8.50;5.90;;;;;;;21.59;71.30;100128.44;6017837;29;20046;-92
2022/05/11 07:30:52;;;;;;;8.35;6.00;;;;;;;21.81;69.44;100116.66;5999834;29;20049;-92
2022/05/11 07:33:54;;;;;;;9.18;6.03;;;;;;;21.93;69.15;100122.94;6006348;29;20054;-92
2022/05/11 07:36:56;;;;;;;7.07;5.90;;;;;;;21.95;67.14;100117.47;6020156;29;20519;-92
2022/05/11 07:39:59;;;;;;;7.65;6.22;;;;;;;21.80;70.90;100119.53;6025433;29;20054;-93
2022/05/11 07:43:02;;;;;;;9.85;6.82;;;;;;;21.64;69.36;100118.09;6017070;29;20571;-92
2022/05/11 07:46:04;;;;;;;8.27;6.10;;;;;;;21.44;71.21;100107.56;6026362;29;20227;-92
2022/05/11 07:49:06;;;;;;;9.82;6.47;;;;;;;21.28;72.20;100104.31;6019882;29;20053;-92
2022/05/11 07:52:08;;;;;;;9.18;6.13;;;;;;;21.27;72.70;100102.69;5998243;29;20221;-93
2022/05/11 07:55:12;;;;;;;10.13;6.45;;;;;;;21.34;73.81;100100.06;6034214;29;20049;-93
2022/05/11 08:01:34;;;;;;;11.32;6.65;;;;;;;21.53;72.83;100100.28;6028664;29;20416;-93
2022/05/11 08:04:36;;;;;;;9.98;6.75;;;;;;;21.59;73.26;100088.94;6009887;29;20056;-92
2022/05/11 08:07:42;;;;;;;8.38;6.75;;;;;;;21.54;73.13;100089.56;6031574;29;20148;-92
2022/05/11 08:10:46;;;;;;;9.00;6.38;;;;;;;21.58;70.12;100092.59;6025931;29;20040;-92
2022/05/11 08:13:47;;;;;;;9.45;6.72;;;;;;;21.39;73.36;100094.22;6014802;29;20088;-92
2022/05/11 08:16:52;;;;;;;8.27;6.53;;;;;;;21.39;75.89;100084.50;6021752;29;20466;-93
2022/05/11 08:19:54;;;;;;;8.60;6.75;;;;;;;21.54;74.20;100086.94;6027320;29;20224;-92
2022/05/11 08:22:58;;;;;;;8.25;6.70;;;;;;;21.62;73.89;100081.44;6021957;29;20109;-92
2022/05/11 08:26:00;;;;;;;9.32;6.85;;;;;;;21.66;72.01;100081.84;6003216;29;20046;-92
2022/05/11 08:29:02;;;;;;;7.53;5.35;;;;;;;21.63;71.64;100077.78;6024002;29;20132;-92
2022/05/11 08:35:28;;;;;;;6.43;4.38;;;;;;;21.50;65.61;100070.72;6020793;29;20033;-92
2022/05/11 08:38:37;;;;;;;9.38;5.63;;;;;;;21.56;65.11;100071.72;6026906;29;20046;-92
2022/05/11 08:41:51;;;;;;;6.63;5.10;;;;;;;21.49;63.38;100070.94;6023231;29;20221;-92
2022/05/11 08:44:53;;;;;;;5.90;4.78;;;;;;;21.49;63.72;100068.31;6021095;29;20447;-92
2022/05/11 08:47:56;;;;;;;6.50;5.05;;;;;;;21.40;66.48;100064.25;6025434;29;20045;-92
2022/05/11 08:51:00;;;;;;;7.85;5.40;;;;;;;21.38;65.51;100066.25;6028894;29;20042;-91
2022/05/11 08:54:23;;;;;;;6.03;5.28;;;;;;;21.30;68.39;100068.06;6027519;29;20520;-91
2022/05/11 08:57:26;;;;;;;9.05;6.47;;;;;;;21.34;66.29;100059.75;6022933;29;20078;-91
2022/05/11 09:00:28;;;;;;;8.88;5.95;;;;;;;21.42;69.79;100059.59;6030057;29;20148;-91
2022/05/11 09:03:41;;;;;;;7.57;6.68;;;;;;;21.51;67.79;100058.34;6030271;29;20500;-91
2022/05/11 09:06:45;;;;;;;7.40;6.28;;;;;;;21.54;69.43;100059.75;6031447;29;20132;-91
2022/05/11 09:09:50;;;;;;;6.95;5.78;;;;;;;21.54;70.29;100054.50;6006477;29;20060;-90
2022/05/11 09:12:58;;;;;;;6.57;5.95;;;;;;;21.62;69.96;100051.66;6023212;29;20045;-91
2022/05/11 09:16:02;;;;;;;7.68;6.60;;;;;;;21.66;69.11;100050.22;6031554;29;20552;-91
2022/05/11 09:19:32;;;;;;;8.35;6.80;;;;;;;21.75;70.22;100048.19;6018452;29;20067;-90
2022/05/11 09:22:38;;;;;;;;;;;;;;;21.97;65.85;100054.03;6016831;29;20061;-90
2022/05/11 09:26:19;;;;;;;7.55;5.57;;;;;;;22.19;64.38;100046.66;6026964;29;20147;-89
2022/05/11 09:29:37;;;;;;;6.95;4.95;;;;;;;22.28;60.91;100053.31;5937265;29;20114;-90
2022/05/11 09:32:44;;;;;;;6.60;4.95;;;;;;;22.31;58.53;100039.69;5955866;29;20082;-89
2022/05/11 09:35:46;;;;;;;8.25;5.47;;;;;;;22.36;57.40;100045.97;5949007;29;20566;-89
2022/05/11 09:39:12;;;;;;;7.35;5.07;;;;;;;22.17;58.93;100035.50;5952785;29;20082;-90
2022/05/11 09:42:19;;;;;;;9.27;5.53;;;;;;;22.39;58.74;100030.75;5950282;29;20144;-90
2022/05/11 09:45:49;;;;;;;7.40;4.32;;;;;;;22.67;58.52;100033.84;5955597;29;20077;-90
2022/05/11 09:49:06;;;;;;;;;;;;;;;22.77;56.28;100020.16;5954759;29;20816;-90
2022/05/11 09:52:08;;;;;;;7.35;5.70;;;;;;;23.05;53.62;100027.69;5951062;29;20411;-89
2022/05/11 09:55:17;;;;;;;8.43;4.80;;;;;;;23.18;56.12;100021.53;5948184;29;20062;-91
2022/05/11 09:58:33;;;;;;;5.85;4.68;;;;;;;23.37;56.20;100019.72;5964541;29;20149;-90
2022/05/11 10:01:36;;;;;;;8.10;4.82;;;;;;;23.62;52.50;100017.03;5952868;29;20142;-90
2022/05/11 10:04:43;;;;;;;6.80;4.75;;;;;;;23.69;52.91;100011.69;5993745;29;20155;-90
2022/05/11 10:07:50;;;;;;;5.50;4.00;;;;;;;23.69;49.93;100009.03;6007748;29;20135;-91
2022/05/11 10:11:16;;;;;;;5.10;3.80;;;;;;;23.70;49.23;100000.91;6010677;29;20042;-89
2022/05/11 10:21:58;;;;;;;4.07;3.72;;;;;;;24.12;48.80;100008.94;6027662;29;20045;-92
2022/05/11 10:25:13;;;;;;;6.53;3.60;;;;;;;24.41;46.62;100003.91;6023547;29;20049;-89
2022/05/11 10:28:44;;;;;;;5.40;3.80;;;;;;;24.51;46.41;99998.91;6024352;29;20045;-89
2022/05/11 10:32:06;;;;;;;8.18;4.25;;;;;;;24.73;46.00;99998.38;6014434;29;20053;-90
2022/05/11 10:35:36;;;;;;;5.32;3.72;;;;;;;24.69;46.28;100029.78;6020185;29;20049;-91
2022/05/11 10:38:43;;;;;;;;;;;;;;;24.71;44.76;99999.41;6026209;29;20045;-90
2022/05/11 10:42:12;;;;;;;4.32;3.80;;;;;;;24.89;43.84;99992.41;6016166;29;19939;-89
2022/05/11 10:45:19;;;;;;;4.70;3.87;;;;;;;25.01;45.08;99993.22;6020680;29;20064;-89
2022/05/11 10:48:50;;;;;;;6.63;3.47;;;;;;;25.28;43.71;100003.41;6017596;29;20208;-88
2022/05/11 10:52:13;;;;;;;9.10;3.67;;;;;;;25.05;43.82;100005.00;6009924;29;20053;-92
2022/05/11 10:55:26;;;;;;;6.15;3.80;;;;;;;24.92;45.52;99989.31;6006813;29;20507;-90
2022/05/11 10:59:02;;;;;;;5.18;4.00;;;;;;;25.13;44.24;99986.09;6017160;29;20506;-90
2022/05/11 11:02:49;;;;;;;6.97;3.50;;;;;;;25.35;44.26;99983.69;6015587;29;20052;-90
2022/05/11 11:10:07;;;;;;;8.98;4.10;;;;;;;25.24;42.39;99983.69;6020511;29;20038;-91
2022/05/11 11:13:22;;;;;;;6.35;3.78;;;;;;;25.27;42.54;99985.91;6024866;29;20468;-92
2022/05/11 11:16:34;;;;;;;6.22;3.70;;;;;;;25.53;42.66;99974.00;6015257;29;20053;-91
2022/05/11 11:19:41;;;;;;;5.57;3.95;;;;;;;25.83;42.12;99980.97;6034371;29;20132;-89
2022/05/11 11:23:03;;;;;;;5.00;3.60;;;;;;;26.24;41.11;99985.22;6029856;29;20056;-90
2022/05/11 11:26:42;;;;;;;4.55;3.92;;;;;;;26.21;39.17;99977.75;6018754;29;20100;-90
2022/05/11 11:30:20;;;;;;;7.10;4.05;;;;;;;25.94;40.05;99988.94;5999788;29;20076;-90
2022/05/11 11:33:24;;;;;;;4.95;4.03;;;;;;;25.54;41.73;99973.78;6024831;29;20061;-91
2022/05/11 11:36:30;;;;;;;7.20;3.80;;;;;;;25.26;41.81;99976.34;6017690;29;20049;-90
2022/05/11 11:40:12;;;;;;;6.07;4.13;;;;;;;25.25;41.18;99972.09;6022715;29;20045;-90
2022/05/11 11:43:53;;;;;;;7.72;4.25;;;;;;;25.75;40.49;99974.19;5994780;29;20101;-96
2022/05/11 11:47:46;;;;;;;8.37;4.30;;;;;;;25.42;41.30;99969.53;6009592;29;20029;-96
2022/05/11 11:51:18;;;;;;;;;;;;;;;25.75;40.92;99969.69;5936537;29;20050;-96
2022/05/11 11:54:51;;;;;;;5.50;4.55;;;;;;;26.23;40.52;99974.84;5993493;29;19940;-95
2022/05/11 11:58:27;;;;;;;6.63;3.90;;;;;;;26.13;41.25;99967.50;5990919;29;20149;-96
2022/05/11 12:18:56;;;;;;;4.85;3.90;;;;;;;26.75;39.01;99962.22;5863056;30;20586;-96
2022/05/11 12:22:17;;;;;;;6.07;3.80;;;;;;;26.97;38.18;99948.22;5807352;30;20615;-96
2022/05/11 12:25:45;;;;;;;;;;;;;;;27.25;36.89;99955.25;5809356;30;20724;-96
2022/05/11 12:29:54;;;;;;;7.70;4.05;;;;;;;26.82;39.15;99952.25;5790560;30;20426;-96
2022/05/11 12:33:06;;;;;;;5.97;3.45;;;;;;;26.71;37.62;99947.00;5838014;30;20053;-96
2022/05/11 12:36:37;;;;;;;7.25;3.65;;;;;;;26.23;38.53;99962.38;5902468;30;20071;-96
2022/05/11 12:39:58;;;;;;;5.78;3.30;;;;;;;26.13;37.83;99954.25;5909665;30;20059;-96
2022/05/11 12:43:25;;;;;;;5.68;3.53;;;;;;;26.61;36.84;99959.09;5894299;30;20055;-96
2022/05/11 12:46:42;;;;;;;5.28;2.88;;;;;;;26.47;35.96;99952.44;5906582;30;20099;-96
2022/05/11 12:49:47;;;;;;;4.13;3.05;;;;;;;26.74;37.51;99944.69;5945093;29;20138;-96
2022/05/11 12:53:20;;;;;;;5.60;3.53;;;;;;;26.85;37.02;99949.09;6012874;29;20094;-96
2022/05/11 12:56:33;;;;;;;6.07;3.20;;;;;;;27.06;37.26;99936.13;6021599;29;20049;-95
2022/05/11 12:59:42;;;;;;;5.22;2.90;;;;;;;27.36;34.54;99934.97;6010256;29;20380;-94
2022/05/11 13:02:47;;;;;;;5.93;2.92;;;;;;;27.35;37.56;99918.19;6012894;29;20057;-96
2022/05/11 13:05:53;;;;;;;7.93;3.47;;;;;;;27.45;37.89;99923.66;6028221;29;20908;-90
2022/05/11 13:09:02;;;;;;;4.90;3.10;;;;;;;27.78;37.41;99907.78;5990145;29;20070;-90
2022/05/11 13:12:06;;;;;;;3.55;2.83;;;;;;;27.88;37.57;99905.25;6017327;29;20676;-92
2022/05/11 13:15:11;;;;;;;7.70;3.50;;;;;;;28.09;33.84;99919.56;6007991;29;20480;-92
2022/05/11 13:18:24;;;;;;;5.80;2.75;;;;;;;28.07;34.83;99900.38;5999487;29;20512;-92
2022/05/11 13:21:35;;;;;;;4.60;2.83;;;;;;;27.84;33.14;99909.47;6029118;29;20052;-92
2022/05/11 13:24:52;;;;;;;5.97;3.03;;;;;;;27.58;33.61;99919.00;6018540;29;20579;-93
2022/05/11 13:28:20;;;;;;;4.32;2.47;;;;;;;27.59;33.67;99905.44;6017516;29;20041;-92
2022/05/11 13:31:32;;;;;;;10.15;3.08;;;;;;;27.52;33.38;99906.69;6009825;29;20072;-91
2022/05/11 13:34:37;;;;;;;6.45;3.13;;;;;;;27.53;33.30;99895.00;6006466;29;20546;-90
2022/05/11 13:37:39;;;;;;;8.88;2.65;;;;;;;27.77;34.74;99882.22;6020263;29;20050;-92
2022/05/11 13:41:05;;;;;;;4.32;2.80;;;;;;;28.05;33.43;99876.69;5995780;29;20637;-91
2022/05/11 13:44:30;;;;;;;5.15;3.30;;;;;;;28.20;33.96;99873.34;6015371;29;20074;-92
2022/05/11 13:51:26;;;;;;;4.38;2.63;;;;;;;28.19;35.37;99869.06;6017356;29;20165;-94
2022/05/11 13:54:40;;;;;;;3.17;2.67;;;;;;;28.45;34.26;99850.69;6013330;29;20088;-94
2022/05/11 13:57:53;;;;;;;4.80;2.78;;;;;;;28.61;33.52;99851.56;6001981;29;20633;-93
2022/05/11 14:01:21;;;;;;;4.35;2.85;;;;;;;28.61;33.42;99856.91;5998265;29;20049;-90
2022/05/11 14:04:32;;;;;;;4.53;2.40;;;;;;;28.48;33.34;99863.47;6009558;29;20105;-91
2022/05/11 14:07:34;;;;;;;6.22;2.83;;;;;;;28.39;33.14;99855.13;5997254;29;20041;-92
2022/05/11 14:10:39;;;;;;;5.25;3.13;;;;;;;28.33;32.38;99840.19;5992141;29;20082;-91
2022/05/11 14:13:43;;;;;;;8.07;2.80;;;;;;;28.34;32.56;99836.44;6003652;29;20543;-93
2022/05/11 14:16:46;;;;;;;4.57;2.50;;;;;;;28.45;33.31;99824.84;6007363;29;20100;-92
2022/05/11 14:20:00;;;;;;;3.17;2.92;;;;;;;28.64;34.68;99822.56;6006552;29;20546;-91
2022/05/11 14:23:04;;;;;;;4.05;2.70;;;;;;;28.76;32.24;99825.03;6014300;29;20072;-94
2022/05/11 14:26:07;;;;;;;4.10;2.50;;;;;;;28.72;33.53;99806.09;6013077;29;20095;-92
2022/05/11 14:29:10;;;;;;;5.50;2.85;;;;;;;29.07;33.62;99817.19;6013473;29;20100;-92
2022/05/11 14:32:32;;;;;;;3.90;2.63;;;;;;;29.38;33.18;99821.53;6012237;29;20048;-92
2022/05/11 14:35:37;;;;;;;4.05;2.90;;;;;;;29.41;31.44;99815.69;6005110;29;20590;-92
2022/05/11 14:38:43;;;;;;;3.25;2.53;;;;;;;29.43;31.94;99810.09;6015192;29;20503;-93
2022/05/11 14:41:48;;;;;;;5.47;2.63;;;;;;;29.61;32.41;99806.13;6001676;29;20136;-95
2022/05/11 14:44:51;;;;;;;4.57;2.72;;;;;;;29.56;33.32;99796.25;5991155;29;20050;-93
2022/05/11 14:48:08;;;;;;;4.20;2.70;;;;;;;29.57;30.97;99802.41;6016929;29;20061;-95
2022/05/11 14:51:15;;;;;;;3.53;2.33;;;;;;;29.60;31.84;99799.19;6002271;29;20390;-94
2022/05/11 14:54:17;;;;;;;3.50;2.67;;;;;;;29.56;31.53;99798.09;6013173;29;20374;-92
2022/05/11 15:04:21;;;;;;;4.45;2.70;;;;;;;29.45;31.19;99796.50;6025112;29;20045;-95
2022/05/11 15:07:27;;;;;;;3.35;3.05;;;;;;;29.28;31.71;99789.53;6015751;29;20895;-96
2022/05/11 15:10:29;;;;;;;6.10;2.70;;;;;;;29.32;31.16;99787.16;6019027;29;20046;-93
2022/05/11 15:13:32;;;;;;;5.60;2.67;;;;;;;29.33;32.44;99791.41;6026113;29;20053;-93
2022/05/11 15:16:37;;;;;;;3.33;2.80;;;;;;;29.42;33.71;99779.16;6015697;29;20053;-93
2022/05/11 15:19:42;;;;;;;4.43;2.60;;;;;;;29.52;32.86;99786.38;6017989;29;20045;-95
2022/05/11 15:22:45;;;;;;;4.00;2.67;;;;;;;29.60;31.99;99775.19;6024247;29;20042;-95
2022/05/11 15:25:48;;;;;;;5.47;2.55;;;;;;;29.75;31.45;99774.44;6023862;29;20511;-95
2022/05/11 15:28:51;;;;;;;5.30;2.70;;;;;;;29.77;31.23;99775.75;6026829;29;20052;-95
2022/05/11 15:31:57;;;;;;;4.32;2.70;;;;;;;29.61;31.47;99760.78;6031700;29;20042;-96
2022/05/11 15:35:00;;;;;;;4.18;2.50;;;;;;;29.57;31.41;99770.38;6027544;29;20049;-95